Flight Track Log - Related Links

Times and Time Zones

All times are in EDT time to prevent confusion due to time zone crossing. See the AAL1459 flight status page for this flight to view local times or setup timezone preferences in your user account.

Time Position Orientation Groundspeed Altitude Reporting Facility
EDT Latitude Longitude Course Direction KTS MPH feet Rate Location/Type
Thu 07:27:33 PM 41.9167 -87.9833 261° West 217 250 3,200  Level Chicago TRACON
Thu 07:28:00 PM 41.9334 -88.1994 257° West  Level FlightAware Approximate
Thu 07:28:33 PM 41.9000 -88.0667 255° West 260 299 5,300  Level Chicago TRACON
Thu 07:29:00 PM 41.9294 -88.3530 255° West  Level FlightAware Approximate
Thu 07:29:14 PM 41.9022 -88.1256 273° West 256 295 6,900  Level Chicago Center
Thu 07:30:00 PM 41.9123 -88.5045 261° West  Level FlightAware Approximate
Thu 07:30:15 PM 41.8989 -88.2256 267° West 270 311 9,600  Level Chicago Center
Thu 07:31:00 PM 41.8944 -88.6569 261° West  Level FlightAware Approximate
Thu 07:31:17 PM 41.8975 -88.3536 269° West 288 331 12,500  Level Chicago Center
Thu 07:32:00 PM 41.8761 -88.8137 261° West  Level FlightAware Approximate
Thu 07:32:18 PM 41.8967 -88.4692 269° West 309 356 14,300  Level Chicago Center
Thu 07:33:19 PM 41.8942 -88.6069 269° West 366 421 16,200 2,049 Climbing Chicago Center
Thu 07:34:21 PM 41.8933 -88.7503 270° West 384 442 18,500 2,146 Climbing Chicago Center
Thu 07:35:22 PM 41.8939 -88.8986 270° West 397 457 20,600 2,066 Climbing Chicago Center
Thu 07:36:23 PM 41.8925 -89.0528 269° West 415 478 22,700 2,705 Climbing Chicago Center
Thu 07:37:24 PM 41.8953 -89.2056 271° West 416 479 26,100 2,683 Climbing Chicago Center
Thu 07:38:26 PM 41.9083 -89.3767 276° West 394 453 28,200 1,805 Climbing Chicago Center
Thu 07:39:27 PM 41.8878 -89.5142 259° West 382 440 29,800 1,317 Climbing Chicago Center
Thu 07:40:29 PM 41.8644 -89.6522 257° West 382 440 30,900 1,024 Climbing Chicago Center
Thu 07:41:30 PM 41.8408 -89.7942 257° West 390 449 31,900 1,082 Climbing Chicago Center
Thu 07:42:31 PM 41.8175 -89.9386 258° West 400 460 33,100 1,131 Climbing Chicago Center
Thu 07:43:32 PM 41.7900 -90.1003 257° West 402 463 34,200 1,024 Climbing Chicago Center
Thu 07:44:34 PM 41.7656 -90.2447 257° West 400 460 35,200 878 Climbing Chicago Center
Thu 07:45:35 PM 41.7392 -90.3953 257° West 411 473 36,000 390 Climbing Chicago Center
Thu 07:46:37 PM 41.7144 -90.5361 257° West 399 459 36,000  Level Chicago Center
Thu 07:47:38 PM 41.6867 -90.6878 256° West 394 453 36,000  Level Chicago Center
Thu 07:48:39 PM 41.6617 -90.8297 257° West 395 455 36,000  Level Chicago Center
Thu 07:49:41 PM 41.6350 -90.9742 256° West 401 461 36,000  Level Chicago Center
Thu 07:50:42 PM 41.6094 -91.1208 257° West 407 468 36,000  Level Chicago Center
Thu 07:51:43 PM 41.5817 -91.2731 256° West 421 484 36,000  Level Chicago Center
Thu 07:52:45 PM 41.5539 -91.4247 256° West 424 488 36,000  Level Chicago Center
Thu 07:53:46 PM 41.5197 -91.6092 256° West 430 495 36,000  Level Chicago Center
Thu 07:54:47 PM 41.4994 -91.7653 260° West 432 497 36,000  Level Chicago Center
Thu 07:55:49 PM 41.4781 -91.9247 260° West 436 502 36,000  Level Chicago Center
Thu 07:56:50 PM 41.4569 -92.0856 260° West 442 509 36,000  Level Chicago Center
Thu 07:57:51 PM 41.4356 -92.2450 260° West 443 510 36,000  Level Chicago Center
Thu 07:58:53 PM 41.4094 -92.4319 260° West 450 518 36,000  Level Chicago Center
Thu 07:59:54 PM 41.3872 -92.5958 260° West 455 524 36,000  Level Chicago Center
Thu 08:00:55 PM 41.3636 -92.7606 259° West 459 528 36,000  Level Chicago Center
Thu 08:01:56 PM 41.3408 -92.9261 260° West 460 529 36,000  Level Chicago Center
Thu 08:02:58 PM 41.3164 -93.0917 259° West 461 531 36,000 195 Level Chicago Center
Thu 08:03:59 PM 41.2931 -93.2575 259° West 461 531 36,400 689 Climbing Chicago Center
Thu 08:05:00 PM 41.2689 -93.4256 259° West 467 537 37,400 787 Climbing Chicago Center
Thu 08:06:01 PM 41.2392 -93.6233 259° West 461 531 38,000 295 Climbing Chicago Center
Thu 08:07:02 PM 41.2147 -93.7917 259° West 467 537 38,000  Level Chicago Center
Thu 08:08:03 PM 41.1889 -93.9572 258° West 465 535 38,000  Level Chicago Center
Thu 08:09:05 PM 41.1647 -94.1250 259° West 467 537 38,000  Level Chicago Center
Thu 08:10:06 PM 41.1367 -94.2928 258° West 469 540 38,000  Level Chicago Center
Thu 08:11:07 PM 41.1108 -94.4606 259° West 470 541 38,000  Level Chicago Center
Thu 08:12:35 PM 41.0692 -94.7289 258° West 472 543 38,000  Level Minneapolis Center
Thu 08:13:36 PM 41.0422 -94.9014 258° West 474 545 38,000  Level Minneapolis Center
Thu 08:14:37 PM 41.0139 -95.0742 258° West 480 552 38,000  Level Minneapolis Center
Thu 08:15:38 PM 40.9861 -95.2444 258° West 475 547 38,000  Level Minneapolis Center
Thu 08:16:51 PM 40.9583 -95.4142 258° West 473 544 38,000  Level Minneapolis Center
Thu 08:17:53 PM 40.9239 -95.6153 257° West 467 537 38,000  Level Minneapolis Center
Thu 08:18:54 PM 40.8956 -95.7819 257° West 462 532 38,000  Level Minneapolis Center
Thu 08:19:55 PM 40.8675 -95.9494 258° West 463 533 38,000  Level Minneapolis Center
Thu 08:20:56 PM 40.8394 -96.1147 257° West 460 529 38,000  Level Minneapolis Center
Thu 08:21:57 PM 40.8117 -96.2778 257° West 455 524 38,000  Level Minneapolis Center
Thu 08:22:58 PM 40.7828 -96.4428 257° West 457 526 38,000  Level Minneapolis Center
Thu 08:23:59 PM 40.7544 -96.6083 257° West 458 527 38,000  Level Minneapolis Center
Thu 08:25:00 PM 40.7256 -96.7728 257° West 459 528 38,000  Level Minneapolis Center
Thu 08:26:01 PM 40.6903 -96.9703 257° West 460 529 38,000  Level Minneapolis Center
Thu 08:27:02 PM 40.6608 -97.1339 257° West 460 529 38,000  Level Minneapolis Center
Thu 08:28:03 PM 40.6314 -97.2983 257° West 460 529 38,000  Level Minneapolis Center
Thu 08:29:04 PM 40.6000 -97.4619 256° West 460 529 38,000  Level Minneapolis Center
Thu 08:30:05 PM 40.5697 -97.6256 256° West 460 529 38,000  Level Minneapolis Center
Thu 08:31:06 PM 40.5392 -97.7881 256° West 459 528 38,000  Level Minneapolis Center
Thu 08:32:08 PM 40.5081 -97.9533 256° West 462 532 38,000  Level Minneapolis Center
Thu 08:33:09 PM 40.5047 -98.1172 269° West 445 512 38,000  Level Minneapolis Center
Thu 08:34:10 PM 40.5108 -98.2800 273° West 443 510 38,000  Level Minneapolis Center
Thu 08:35:11 PM 40.5172 -98.4414 273° West 443 510 38,000  Level Minneapolis Center
Thu 08:36:12 PM 40.5231 -98.6036 273° West 442 509 38,000  Level Minneapolis Center
Thu 08:37:13 PM 40.5289 -98.7661 273° West 443 510 38,000  Level Minneapolis Center
Thu 08:38:14 PM 40.5356 -98.9300 273° West 445 512 38,000  Level Minneapolis Center
Thu 08:39:15 PM 40.5408 -99.0925 272° West 444 511 38,000  Level Minneapolis Center
Thu 08:40:16 PM 40.5458 -99.2567 272° West 445 512 38,000  Level Minneapolis Center
Thu 08:41:29 PM 40.5522 -99.4208 273° West 447 514 38,000  Level Minneapolis Center
Thu 08:42:31 PM 40.5586 -99.6475 272° West 443 510 38,000  Level Minneapolis Center
Thu 08:43:32 PM 40.5647 -99.8083 273° West 440 506 38,000  Level Minneapolis Center
Thu 08:44:33 PM 40.5683 -99.9689 272° West 439 505 38,000  Level Minneapolis Center
Thu 08:45:34 PM 40.5728 -100.1278 272° West 436 502 38,000  Level Minneapolis Center
Thu 08:46:35 PM 40.5778 -100.2881 272° West 437 503 38,000  Level Minneapolis Center
Thu 08:47:36 PM 40.5811 -100.4483 272° West 438 504 38,000  Level Minneapolis Center
Thu 08:48:55 PM 40.5825 -100.6344 271° West 440 506 38,000  Level Denver Center
Thu 08:49:57 PM 40.5861 -100.8169 272° West 440 506 38,000  Level Denver Center
Thu 08:50:58 PM 40.5883 -100.9725 271° West 440 506 38,000  Level Denver Center
Thu 08:51:59 PM 40.5919 -101.1522 272° West 438 504 38,000  Level Denver Center
Thu 08:53:00 PM 40.5942 -101.3061 271° West 439 505 38,000  Level Denver Center
Thu 08:54:01 PM 40.5961 -101.4619 271° West 442 509 38,000  Level Denver Center
Thu 08:55:01 PM 40.5986 -101.6431 271° West 445 512 38,000  Level Denver Center
Thu 08:56:02 PM 40.6008 -101.7981 271° West 443 510 38,000  Level Denver Center
Thu 08:57:03 PM 40.6025 -101.9514 271° West 439 505 38,000  Level Denver Center
Thu 08:58:04 PM 40.6039 -102.1028 271° West 435 501 38,000  Level Denver Center
Thu 08:59:05 PM 40.6039 -102.2822 270° West 439 505 38,000  Level Denver Center
Thu 09:00:06 PM 40.6053 -102.4608 271° West 438 504 38,000  Level Denver Center
Thu 09:01:19 PM 40.6061 -102.6144 270° West 439 505 38,000  Level Denver Center
Thu 09:02:20 PM 40.6069 -102.8086 270° West 438 504 38,000  Level Denver Center
Thu 09:03:33 PM 40.6078 -103.0003 270° West 439 505 38,000  Level Denver Center
Thu 09:04:34 PM 40.6078 -103.1614 270° West 441 507 38,000  Level Denver Center
Thu 09:05:35 PM 40.6072 -103.3219 270° West 441 507 38,000  Level Denver Center
Thu 09:06:36 PM 40.6061 -103.4811 270° West 438 504 38,000  Level Denver Center
Thu 09:07:37 PM 40.6053 -103.6411 270° West 438 504 38,000  Level Denver Center
Thu 09:08:38 PM 40.6042 -103.7992 270° West 436 502 38,000  Level Denver Center
Thu 09:09:39 PM 40.6033 -103.9586 270° West 438 504 38,000  Level Denver Center
Thu 09:10:40 PM 40.6011 -104.1519 269° West 444 511 38,000  Level Denver Center
Thu 09:11:53 PM 40.6000 -104.3147 270° West 446 513 38,000  Level Denver Center
Thu 09:12:54 PM 40.5978 -104.5083 269° West 446 513 38,000  Level Denver Center
Thu 09:13:55 PM 40.5956 -104.6697 269° West 445 512 38,000  Level Denver Center
Thu 09:14:56 PM 40.5933 -104.8294 269° West 441 507 38,000  Level Denver Center
Thu 09:15:57 PM 40.5903 -104.9875 269° West 436 502 38,000  Level Denver Center
Thu 09:16:58 PM 40.5883 -105.1414 269° West 427 491 38,000  Level Denver Center
Thu 09:17:58 PM 40.5844 -105.2964 268° West 425 489 38,000  Level Denver Center
Thu 09:18:59 PM 40.5806 -105.4539 268° West 433 498 38,000  Level Denver Center
Thu 09:20:00 PM 40.5783 -105.6103 269° West 431 496 38,000  Level Denver Center
Thu 09:21:01 PM 40.5736 -105.7658 268° West 428 493 38,000  Level Denver Center
Thu 09:22:02 PM 40.5700 -105.9519 269° West 426 490 38,000  Level Denver Center
Thu 09:23:03 PM 40.5661 -106.1072 268° West 426 490 38,000  Level Denver Center
Thu 09:24:04 PM 40.5617 -106.2575 268° West 428 493 38,000  Level Denver Center
Thu 09:25:05 PM 40.5586 -106.4078 269° West 429 494 38,000  Level Denver Center
Thu 09:26:06 PM 40.5522 -106.5617 267° West 426 490 38,000  Level Denver Center
Thu 09:27:19 PM 40.5483 -106.7158 268° West 424 488 38,000  Level Denver Center
Thu 09:28:20 PM 40.5419 -106.9019 267° West 425 489 38,000  Level Denver Center
Thu 09:29:21 PM 40.5369 -107.0544 268° West 422 486 38,000  Level Denver Center
Thu 09:30:22 PM 40.5308 -107.2206 267° West 424 488 38,000  Level Denver Center
Thu 09:31:23 PM 40.5242 -107.3944 267° West 426 490 38,000  Level Denver Center
Thu 09:32:24 PM 40.5183 -107.5436 267° West 427 491 38,000  Level Denver Center
Thu 09:33:25 PM 40.5125 -107.7175 268° West 427 491 38,000  Level Denver Center
Thu 09:34:26 PM 40.5053 -107.8653 266° West 426 490 38,000  Level Denver Center
Thu 09:35:26 PM 40.5008 -107.9906 267° West 430 495 38,000  Level Denver Center
Thu 09:36:28 PM 40.5200 -108.1875 277° West 427 491 38,000  Level Denver Center
Thu 09:37:29 PM 40.5361 -108.3317 278° West 421 484 38,000  Level Denver Center
Thu 09:38:30 PM 40.5503 -108.4781 277° West 424 488 38,000  Level Denver Center
Thu 09:39:31 PM 40.5672 -108.6481 278° West 422 486 38,000  Level Denver Center
Thu 09:40:32 PM 40.5814 -108.7958 277° West 426 490 38,000  Level Denver Center
Thu 09:41:33 PM 40.5975 -108.9661 277° West 424 488 38,000  Level Denver Center
Thu 09:42:34 PM 40.6125 -109.1114 278° West 422 486 38,000  Level Denver Center
Thu 09:43:35 PM 40.6058 -109.2594 267° West 426 490 38,000  Level Denver Center
Thu 09:44:36 PM 40.5806 -109.4286 259° West 423 487 38,000  Level Denver Center
Thu 09:45:37 PM 40.5611 -109.5733 260° West 421 484 38,000  Level Denver Center
Thu 09:46:38 PM 40.5650 -109.7192 272° West 421 484 38,000  Level Denver Center
Thu 09:48:02 PM 40.5933 -109.9350 280° West 418 481 38,000  Level Salt Lake Center
Thu 09:49:03 PM 40.6153 -110.1022 280° West 416 479 38,000  Level Salt Lake Center
Thu 09:50:04 PM 40.6364 -110.2547 280° West 413 475 38,000  Level Salt Lake Center
Thu 09:51:05 PM 40.6550 -110.3969 280° West 413 475 38,000  Level Salt Lake Center
Thu 09:52:07 PM 40.6733 -110.5389 280° West 412 474 38,000  Level Salt Lake Center
Thu 09:53:08 PM 40.6944 -110.7069 279° West 412 474 38,000  Level Salt Lake Center
Thu 09:54:09 PM 40.7139 -110.8564 280° West 413 475 38,000  Level Salt Lake Center
Thu 09:55:10 PM 40.7314 -111.0044 279° West 411 473 38,000  Level Salt Lake Center
Thu 09:56:11 PM 40.7503 -111.1531 280° West 412 474 38,000  Level Salt Lake Center
Thu 09:57:12 PM 40.7692 -111.3019 280° West 411 473 38,000  Level Salt Lake Center
Thu 09:58:13 PM 40.7872 -111.4492 279° West 408 470 38,000  Level Salt Lake Center
Thu 09:59:14 PM 40.8053 -111.5969 279° West 408 470 38,000  Level Salt Lake Center
Thu 10:00:15 PM 40.8233 -111.7453 279° West 405 466 38,000  Level Salt Lake Center
Thu 10:01:16 PM 40.8417 -111.8939 279° West 397 457 38,000  Level Salt Lake Center
Thu 10:02:17 PM 40.8458 -112.0428 272° West 405 466 38,000  Level Salt Lake Center
Thu 10:03:18 PM 40.8325 -112.1917 263° West 407 468 38,000  Level Salt Lake Center
Thu 10:04:19 PM 40.8208 -112.3375 264° West 396 456 38,000  Level Salt Lake Center
Thu 10:05:20 PM 40.8092 -112.4828 264° West 399 459 38,000  Level Salt Lake Center
Thu 10:06:21 PM 40.7972 -112.6264 264° West 394 453 38,000  Level Salt Lake Center
Thu 10:07:22 PM 40.7856 -112.7708 264° West 395 455 38,000  Level Salt Lake Center
Thu 10:08:23 PM 40.7686 -112.9458 263° West 399 459 38,000  Level Salt Lake Center
Thu 10:09:24 PM 40.7558 -113.0911 263° West 401 461 38,000  Level Salt Lake Center
Thu 10:10:25 PM 40.7428 -113.2369 263° West 401 461 38,000  Level Salt Lake Center
Thu 10:11:26 PM 40.7308 -113.3814 264° West 398 458 38,000  Level Salt Lake Center
Thu 10:12:27 PM 40.7147 -113.5261 262° West 400 460 38,000  Level Salt Lake Center
Thu 10:13:28 PM 40.7019 -113.6722 263° West 402 463 38,000  Level Salt Lake Center
Thu 10:14:29 PM 40.6878 -113.8175 263° West 401 461 38,000  Level Salt Lake Center
Thu 10:15:30 PM 40.6728 -113.9619 262° West 399 459 38,000  Level Salt Lake Center
Thu 10:16:31 PM 40.6592 -114.1044 263° West 395 455 38,000  Level Salt Lake Center
Thu 10:17:32 PM 40.6447 -114.2469 262° West 394 453 38,000  Level Salt Lake Center
Thu 10:18:33 PM 40.6306 -114.3892 263° West 393 452 38,000  Level Salt Lake Center
Thu 10:19:34 PM 40.6164 -114.5311 263° West 392 451 38,000  Level Salt Lake Center
Thu 10:20:35 PM 40.6025 -114.6714 263° West 389 448 38,000  Level Salt Lake Center
Thu 10:21:35 PM 40.5867 -114.8333 263° West 393 452 38,000  Level Salt Lake Center
Thu 10:22:36 PM 40.5722 -114.9689 262° West 392 451 38,000  Level Salt Lake Center
Thu 10:23:37 PM 40.5553 -115.1281 262° West 394 453 38,000  Level Salt Lake Center
Thu 10:24:38 PM 40.5367 -115.2658 260° West 398 458 38,000  Level Salt Lake Center
Thu 10:25:39 PM 40.5219 -115.4044 262° West 399 459 38,000  Level Salt Lake Center
Thu 10:26:40 PM 40.5033 -115.5647 261° West 398 458 38,000  Level Salt Lake Center
Thu 10:27:41 PM 40.4881 -115.6994 262° West 390 449 38,000  Level Salt Lake Center
Thu 10:28:42 PM 40.4733 -115.8350 262° West 390 449 38,000  Level Salt Lake Center
Thu 10:29:43 PM 40.4544 -115.9917 261° West 390 449 38,000  Level Salt Lake Center
Thu 10:30:44 PM 40.4394 -116.1278 262° West 392 451 38,000  Level Salt Lake Center
Thu 10:31:44 PM 40.4239 -116.2633 261° West 393 452 38,000  Level Salt Lake Center
Thu 10:32:45 PM 40.4044 -116.4250 261° West 399 459 38,000  Level Salt Lake Center
Thu 10:33:46 PM 40.3875 -116.5619 261° West 398 458 38,000  Level Salt Lake Center
Thu 10:34:47 PM 40.3700 -116.6983 260° West 395 455 38,000  Level Salt Lake Center
Thu 10:35:48 PM 40.3503 -116.8525 261° West 400 460 38,000 -295 Level Salt Lake Center
Thu 10:36:49 PM 40.3314 -117.0167 261° West 417 480 37,400 -787 Descending Salt Lake Center
Thu 10:37:50 PM 40.3136 -117.1614 261° West 419 482 36,400 -689 Descending Salt Lake Center
Thu 10:38:51 PM 40.2953 -117.3050 261° West 418 481 36,000 -198 Descending Salt Lake Center
Thu 10:39:51 PM 40.2733 -117.4703 260° West 413 475 36,000  Level Salt Lake Center
Thu 10:40:52 PM 40.2556 -117.6142 261° West 417 480 36,000  Level Salt Lake Center
Thu 10:41:42 PM 40.2411 -117.7211 260° West 417 480 36,000  Level Oakland Center
Thu 10:42:42 PM 40.2181 -117.8969 260° West 410 472 36,000 -50 Level Oakland Center
Thu 10:43:43 PM 40.1992 -118.0433 260° West 410 472 35,900 -639 Descending Oakland Center
Thu 10:44:44 PM 40.1794 -118.1897 260° West 412 474 34,700 -1,537 Descending Oakland Center
Thu 10:45:44 PM 40.1578 -118.3397 259° West 420 483 32,800 -2,628 Descending Oakland Center
Thu 10:46:45 PM 40.1183 -118.4844 250° West 438 504 29,400 -2,951 Descending Oakland Center
Thu 10:47:46 PM 40.0189 -118.5636 211° Southwest 424 488 26,800 -2,579 Descending Oakland Center
Thu 10:48:46 PM 39.9181 -118.6197 203° Southwest 400 460 24,200 -2,628 Descending Oakland Center
Thu 10:49:47 PM 39.8156 -118.6597 197° South 387 445 21,500 -2,656 Descending Oakland Center
Thu 10:50:48 PM 39.7147 -118.6972 196° South 378 435 18,800 -2,479 Descending Oakland Center
Thu 10:51:48 PM 39.6178 -118.7283 194° South 364 419 16,500 -1,388 Descending Oakland Center
Thu 10:52:49 PM 39.5292 -118.7753 202° Southwest 351 404 16,000 -590 Descending Oakland Center
Thu 10:53:50 PM 39.4353 -118.8486 211° Southwest 349 402 15,300 -992 Descending Oakland Center
Thu 10:54:50 PM 39.4022 -118.9619 249° West 343 395 14,000 -645 Descending Oakland Center
Thu 10:55:51 PM 39.3814 -119.0803 257° West 338 389 14,000 -344 Level Oakland Center
Thu 10:56:52 PM 39.3608 -119.1983 257° West 330 380 13,300 -496 Descending Oakland Center
Thu 10:57:52 PM 39.3417 -119.3067 257° West 314 361 13,000 -149 Descending Oakland Center
Thu 10:58:53 PM 39.3214 -119.4175 257° West 316 364 13,000 -984 Level Oakland Center
Thu 10:59:54 PM 39.2981 -119.5314 255° West 324 373 11,000 -1,131 Descending Oakland Center
Thu 11:00:55 PM 39.2742 -119.6381 254° West 318 366 10,700 -949 Descending Oakland Center
Thu 11:02:51 PM 39.3167 -119.7667 293° West 251 289 8,200 -1,293 Descending Northern Cal TRACON

Login

Don't have an account? Register now (free) for customized features, flight alerts, and more!